Time;durP1;ratioP1;P1;durP2;ratioP2;P2;SDS_P1;SDS_P2;PMS_P1;PMS_P2;Temp;Humidity;BMP_temperature;BMP_pressure;BME280_temperature;BME280_humidity;BME280_pressure;Samples;Min_cycle;Max_cycle;Signal;HPM_P1;HPM_P2
2022/03/09 00:01:34;;;;;;;;;;;3.80;46.00;;;;;;5092518;28;19920;-55
2022/03/09 00:04:01;;;;;;;;;;;3.80;46.10;;;;;;5095776;28;19946;-55
2022/03/09 00:06:28;;;;;;;;;;;3.90;46.70;;;;;;5095287;28;20324;-57
2022/03/09 00:08:55;;;;;;;;;;;4.00;46.70;;;;;;5095825;28;19920;-56
2022/03/09 00:11:22;;;;;;;;;;;4.00;47.20;;;;;;5095699;28;20344;-59
2022/03/09 00:13:49;;;;;;;;;;;4.10;47.10;;;;;;5095656;28;19920;-57
2022/03/09 00:16:15;;;;;;;;;;;4.10;47.20;;;;;;5095053;28;19965;-57
2022/03/09 00:18:42;;;;;;;;;;;4.20;47.70;;;;;;5095057;28;20439;-58
2022/03/09 00:21:08;;;;;;;;;;;4.30;48.90;;;;;;5095862;28;19924;-59
2022/03/09 00:23:35;;;;;;;;;;;4.30;48.80;;;;;;5095356;28;19920;-59
2022/03/09 00:26:03;;;;;;;;;;;4.30;47.90;;;;;;5095405;28;19942;-55
2022/03/09 00:28:30;;;;;;;;;;;4.30;48.70;;;;;;5087278;28;19923;-59
2022/03/09 00:30:56;;;;;;;;;;;4.40;49.30;;;;;;5095113;28;20436;-58
2022/03/09 00:33:23;;;;;;;;;;;4.40;48.70;;;;;;5095421;28;20373;-59
2022/03/09 00:35:49;;;;;;;;;;;4.40;49.00;;;;;;5095458;28;19920;-57
2022/03/09 00:38:16;;;;;;;;;;;4.40;49.20;;;;;;5095374;28;20015;-59
2022/03/09 00:40:44;;;;;;;;;;;4.40;49.90;;;;;;5095268;28;19924;-57
2022/03/09 00:43:11;;;;;;;;;;;4.40;49.40;;;;;;5094680;28;19920;-58
2022/03/09 00:45:38;;;;;;;;;;;4.50;49.50;;;;;;5095121;28;19985;-58
2022/03/09 00:48:05;;;;;;;;;;;4.40;49.40;;;;;;5094757;28;20381;-59
2022/03/09 00:50:31;;;;;;;;;;;4.40;49.80;;;;;;5095298;28;19924;-59
2022/03/09 00:52:58;;;;;;;;;;;4.40;48.80;;;;;;5096932;28;19920;-58
2022/03/09 00:55:24;;;;;;;;;;;4.30;49.40;;;;;;5100402;28;19973;-58
2022/03/09 00:57:51;;;;;;;;;;;4.30;48.00;;;;;;5095832;28;19965;-58
2022/03/09 01:00:19;;;;;;;;;;;4.30;49.10;;;;;;5095080;28;19923;-56
2022/03/09 01:02:46;;;;;;;;;;;4.30;47.80;;;;;;5094650;28;19920;-57
2022/03/09 01:05:13;;;;;;;;;;;4.30;47.90;;;;;;5094752;28;20402;-56
2022/03/09 01:07:40;;;;;;;;;;;4.30;48.00;;;;;;5094161;28;20419;-56
2022/03/09 01:10:07;;;;;;;;;;;4.30;48.70;;;;;;5094607;28;19920;-57
2022/03/09 01:12:33;;;;;;;;;;;4.30;48.70;;;;;;5093828;28;19928;-57
2022/03/09 01:15:00;;;;;;;;;;;4.30;48.40;;;;;;5093920;28;19973;-58
2022/03/09 01:17:28;;;;;;;;;;;4.30;47.60;;;;;;5094237;28;19920;-56
2022/03/09 01:19:54;;;;;;;;;;;4.20;47.20;;;;;;5094411;28;19920;-53
2022/03/09 01:22:21;;;;;;;;;;;4.30;48.10;;;;;;5094514;28;19919;-58
2022/03/09 01:24:47;;;;;;;;;;;4.20;48.00;;;;;;5093803;28;19923;-57
2022/03/09 01:27:14;;;;;;;;;;;4.30;48.00;;;;;;5093962;28;19923;-54
2022/03/09 01:29:40;;;;;;;;;;;4.20;47.90;;;;;;5094276;28;19966;-54
2022/03/09 01:32:07;;;;;;;;;;;4.20;47.00;;;;;;5094370;28;19920;-56
2022/03/09 01:34:35;;;;;;;;;;;4.20;47.50;;;;;;5094151;28;19924;-56
2022/03/09 01:37:02;;;;;;;;;;;4.20;47.00;;;;;;5093733;28;19966;-58
2022/03/09 01:39:29;;;;;;;;;;;4.20;46.80;;;;;;5093637;28;19974;-58
2022/03/09 01:41:56;;;;;;;;;;;4.30;64.30;;;;;;5094041;28;19920;-54
2022/03/09 01:44:23;;;;;;;;;;;4.20;47.40;;;;;;5093961;28;19924;-56
2022/03/09 01:46:50;;;;;;;;;;;4.30;47.30;;;;;;5093447;28;19927;-54
2022/03/09 01:49:17;;;;;;;;;;;4.30;47.80;;;;;;5093953;28;20071;-55
2022/03/09 01:51:46;;;;;;;;;;;4.30;47.90;;;;;;5093830;28;19920;-56
2022/03/09 01:54:13;;;;;;;;;;;4.30;47.70;;;;;;5093501;28;19928;-56
2022/03/09 01:56:40;;;;;;;;;;;4.30;47.30;;;;;;5093410;28;20402;-56
2022/03/09 01:59:09;;;;;;;;;;;4.20;46.70;;;;;;5093632;28;20340;-59
2022/03/09 02:01:36;;;;;;;;;;;4.20;47.20;;;;;;5093823;28;19920;-56
2022/03/09 02:04:03;;;;;;;;;;;4.10;46.60;;;;;;5093322;28;19992;-58
2022/03/09 02:06:31;;;;;;;;;;;4.10;46.30;;;;;;5093235;28;19973;-57
2022/03/09 02:11:43;;;;;;;;;;;4.10;46.20;;;;;;5093634;28;19946;-59
2022/03/09 02:14:25;;;;;;;;;;;4.10;46.30;;;;;;5093498;28;19928;-57
2022/03/09 02:16:51;;;;;;;;;;;4.00;45.80;;;;;;5092942;28;20014;-58
2022/03/09 02:19:18;;;;;;;;;;;4.00;45.10;;;;;;5093476;28;19923;-59
2022/03/09 02:21:45;;;;;;;;;;;4.00;46.20;;;;;;5093063;28;19920;-59
2022/03/09 02:24:13;;;;;;;;;;;4.10;46.70;;;;;;5093030;28;20378;-57
2022/03/09 02:26:41;;;;;;;;;;;4.10;45.70;;;;;;5092880;28;19999;-55
2022/03/09 02:29:07;;;;;;;;;;;4.10;46.30;;;;;;5093342;28;19920;-55
2022/03/09 02:31:35;;;;;;;;;;;4.10;45.80;;;;;;5093013;28;19924;-53
2022/03/09 02:34:01;;;;;;;;;;;4.00;45.60;;;;;;5093205;28;19923;-56
2022/03/09 02:36:28;;;;;;;;;;;4.00;45.60;;;;;;5092820;28;19927;-57
2022/03/09 02:38:54;;;;;;;;;;;4.00;46.60;;;;;;5092922;28;19920;-57
2022/03/09 02:41:22;;;;;;;;;;;4.00;45.50;;;;;;5092784;28;19920;-58
2022/03/09 02:43:49;;;;;;;;;;;4.00;45.90;;;;;;5092700;28;19927;-59
2022/03/09 02:46:15;;;;;;;;;;;4.00;45.50;;;;;;5093948;28;19973;-58
2022/03/09 02:48:42;;;;;;;;;;;4.00;44.80;;;;;;5094251;28;19920;-59
2022/03/09 02:51:08;;;;;;;;;;;4.00;44.80;;;;;;5093476;28;19924;-59
2022/03/09 02:53:35;;;;;;;;;;;4.00;45.00;;;;;;5092981;28;19920;-59
2022/03/09 02:56:01;;;;;;;;;;;4.00;45.30;;;;;;5094236;28;19924;-59
2022/03/09 02:58:29;;;;;;;;;;;4.00;45.50;;;;;;5092970;28;19966;-56
2022/03/09 03:00:56;;;;;;;;;;;4.00;45.30;;;;;;5092649;28;19927;-57
2022/03/09 03:03:22;;;;;;;;;;;4.00;45.30;;;;;;5092608;28;19924;-56
2022/03/09 03:05:48;;;;;;;;;;;4.00;45.10;;;;;;5092361;28;19945;-56
2022/03/09 03:08:15;;;;;;;;;;;4.00;44.80;;;;;;5092338;28;19920;-52
2022/03/09 03:10:42;;;;;;;;;;;4.00;45.20;;;;;;5092713;28;19924;-58
2022/03/09 03:13:08;;;;;;;;;;;4.00;44.70;;;;;;5092366;28;19919;-59
2022/03/09 03:15:36;;;;;;;;;;;3.90;44.90;;;;;;5092595;28;19924;-60
2022/03/09 03:18:04;;;;;;;;;;;3.80;45.40;;;;;;5092189;28;20294;-56
2022/03/09 03:20:30;;;;;;;;;;;3.80;44.10;;;;;;5092513;28;19920;-58
2022/03/09 03:22:57;;;;;;;;;;;3.80;44.10;;;;;;5091782;28;19923;-57
2022/03/09 03:25:23;;;;;;;;;;;3.80;43.90;;;;;;5092555;28;20344;-57
2022/03/09 03:27:50;;;;;;;;;;;3.80;42.90;;;;;;5091730;28;19920;-58
2022/03/09 03:30:16;;;;;;;;;;;3.80;43.60;;;;;;5092465;28;19973;-54
2022/03/09 03:32:44;;;;;;;;;;;3.80;43.00;;;;;;5092447;28;19945;-57
2022/03/09 03:35:11;;;;;;;;;;;3.70;43.10;;;;;;5092068;28;20366;-57
2022/03/09 03:37:37;;;;;;;;;;;3.80;43.70;;;;;;5094688;28;20378;-56
2022/03/09 03:40:04;;;;;;;;;;;3.90;44.40;;;;;;5096322;28;20049;-54
2022/03/09 03:42:31;;;;;;;;;;;3.90;44.60;;;;;;5096163;28;19965;-57
2022/03/09 03:44:57;;;;;;;;;;;3.90;44.40;;;;;;5096281;28;19924;-56
2022/03/09 03:47:24;;;;;;;;;;;3.90;44.20;;;;;;5096104;28;19927;-58
2022/03/09 03:49:52;;;;;;;;;;;3.90;44.40;;;;;;5096066;28;19920;-59
2022/03/09 03:52:18;;;;;;;;;;;3.90;44.40;;;;;;5096263;28;19919;-56
2022/03/09 03:54:45;;;;;;;;;;;3.90;44.00;;;;;;5095886;28;19924;-59
2022/03/09 03:57:11;;;;;;;;;;;3.90;44.70;;;;;;5095926;28;19924;-59
2022/03/09 03:59:38;;;;;;;;;;;3.90;44.30;;;;;;5096310;28;19920;-58
2022/03/09 04:02:04;;;;;;;;;;;3.90;44.10;;;;;;5095996;28;19993;-52
2022/03/09 04:04:31;;;;;;;;;;;3.80;44.30;;;;;;5095993;28;19920;-59
2022/03/09 04:06:59;;;;;;;;;;;3.80;43.60;;;;;;5095523;28;19919;-57
2022/03/09 04:09:25;;;;;;;;;;;3.80;43.20;;;;;;5095868;28;19928;-59
2022/03/09 04:11:52;;;;;;;;;;;3.80;42.50;;;;;;5096125;28;19973;-57
2022/03/09 04:14:22;;;;;;;;;;;3.70;41.60;;;;;;5095589;28;20370;-50
2022/03/09 04:16:48;;;;;;;;;;;3.70;42.70;;;;;;5095426;28;19973;-55
2022/03/09 04:19:15;;;;;;;;;;;3.60;42.10;;;;;;5095235;28;20617;-52
2022/03/09 04:21:42;;;;;;;;;;;3.70;42.40;;;;;;5095700;28;19919;-58
2022/03/09 04:24:15;;;;;;;;;;;3.70;42.60;;;;;;5095036;28;20392;-57
2022/03/09 04:26:42;;;;;;;;;;;3.70;43.10;;;;;;5095570;28;20352;-57
2022/03/09 04:29:08;;;;;;;;;;;3.70;42.10;;;;;;5095423;28;20370;-56
2022/03/09 04:31:35;;;;;;;;;;;3.70;42.20;;;;;;5095554;28;19970;-53
2022/03/09 04:34:01;;;;;;;;;;;3.70;42.10;;;;;;5095457;28;19928;-56
2022/03/09 04:36:28;;;;;;;;;;;3.70;43.00;;;;;;5094724;28;19920;-57
2022/03/09 04:38:55;;;;;;;;;;;3.70;42.00;;;;;;5095238;28;20001;-58
2022/03/09 04:41:23;;;;;;;;;;;3.70;42.20;;;;;;5095281;28;19920;-59
2022/03/09 04:43:49;;;;;;;;;;;3.70;42.30;;;;;;5095304;28;19973;-60
2022/03/09 04:46:16;;;;;;;;;;;3.70;41.90;;;;;;5094862;28;19924;-60
2022/03/09 04:48:43;;;;;;;;;;;3.70;42.50;;;;;;5095081;28;19985;-60
2022/03/09 04:51:09;;;;;;;;;;;3.70;41.70;;;;;;5094997;28;20336;-58
2022/03/09 04:53:36;;;;;;;;;;;3.70;42.20;;;;;;5095251;28;20443;-60
2022/03/09 04:56:03;;;;;;;;;;;3.80;43.00;;;;;;5094617;28;19973;-59
2022/03/09 04:58:31;;;;;;;;;;;3.80;43.10;;;;;;5095027;28;19965;-57
2022/03/09 05:00:57;;;;;;;;;;;3.80;43.70;;;;;;5095316;28;20336;-60
2022/03/09 05:03:24;;;;;;;;;;;3.80;43.20;;;;;;5094763;28;20366;-59
2022/03/09 05:05:50;;;;;;;;;;;3.80;42.80;;;;;;5095437;28;19930;-58
2022/03/09 05:08:17;;;;;;;;;;;3.80;43.20;;;;;;5094662;28;20381;-59
2022/03/09 05:10:43;;;;;;;;;;;3.80;43.50;;;;;;5095244;28;19919;-58
2022/03/09 05:13:10;;;;;;;;;;;3.80;43.10;;;;;;5094724;28;19928;-59
2022/03/09 05:15:37;;;;;;;;;;;3.90;43.60;;;;;;5094509;28;19924;-60
2022/03/09 05:18:04;;;;;;;;;;;3.90;43.20;;;;;;5094093;28;19923;-60
2022/03/09 05:20:31;;;;;;;;;;;3.90;44.60;;;;;;5094300;28;19920;-60
2022/03/09 05:22:58;;;;;;;;;;;3.80;44.30;;;;;;5094497;28;20351;-60
2022/03/09 05:25:24;;;;;;;;;;;3.90;43.40;;;;;;5094221;28;19991;-60
2022/03/09 05:27:51;;;;;;;;;;;3.90;43.60;;;;;;5093921;28;19981;-59
2022/03/09 05:30:17;;;;;;;;;;;3.90;60.00;;;;;;5093877;28;19924;-59
2022/03/09 05:32:45;;;;;;;;;;;3.80;43.40;;;;;;5092650;28;19920;-60
2022/03/09 05:35:12;;;;;;;;;;;3.80;43.40;;;;;;5094553;28;20457;-60
2022/03/09 05:37:39;;;;;;;;;;;3.80;43.30;;;;;;5093636;28;19920;-58
2022/03/09 05:40:06;;;;;;;;;;;3.70;42.80;;;;;;5094172;28;19928;-60
2022/03/09 05:42:33;;;;;;;;;;;3.70;42.60;;;;;;5093644;28;20478;-58
2022/03/09 05:45:00;;;;;;;;;;;3.70;42.10;;;;;;5093919;28;20374;-60
2022/03/09 05:47:26;;;;;;;;;;;3.70;42.80;;;;;;5093090;28;20018;-57
2022/03/09 05:49:54;;;;;;;;;;;3.60;42.30;;;;;;5093964;28;19946;-59
2022/03/09 05:52:21;;;;;;;;;;;3.60;41.90;;;;;;5093736;28;19928;-59
2022/03/09 05:54:47;;;;;;;;;;;3.60;41.90;;;;;;5093471;28;19920;-59
2022/03/09 05:57:14;;;;;;;;;;;3.50;41.10;;;;;;5093502;28;19924;-61
2022/03/09 05:59:40;;;;;;;;;;;3.40;40.70;;;;;;5092815;28;19966;-61
2022/03/09 06:02:07;;;;;;;;;;;3.40;40.60;;;;;;5093420;28;19920;-60
2022/03/09 06:04:33;;;;;;;;;;;3.40;39.90;;;;;;5093541;28;19924;-60
2022/03/09 06:07:03;;;;;;;;;;;3.30;40.20;;;;;;5093050;28;20394;-59
2022/03/09 06:09:29;;;;;;;;;;;3.30;40.80;;;;;;5094579;28;19953;-61
2022/03/09 06:11:57;;;;;;;;;;;3.30;40.70;;;;;;5093173;28;19969;-60
2022/03/09 06:14:24;;;;;;;;;;;3.30;40.40;;;;;;5093376;28;20351;-58
2022/03/09 06:16:51;;;;;;;;;;;3.30;40.70;;;;;;5092491;28;19928;-59
2022/03/09 06:19:18;;;;;;;;;;;3.30;40.80;;;;;;5094301;28;19920;-61
2022/03/09 06:21:45;;;;;;;;;;;3.30;40.90;;;;;;5094150;28;20049;-60
2022/03/09 06:24:16;;;;;;;;;;;3.40;41.60;;;;;;5099754;28;19927;-59
2022/03/09 06:26:43;;;;;;;;;;;3.50;42.30;;;;;;5095210;28;19927;-62
2022/03/09 06:29:10;;;;;;;;;;;3.50;41.80;;;;;;5082067;28;19940;-64
2022/03/09 06:31:36;;;;;;;;;;;3.50;42.70;;;;;;5092270;28;19924;-65
2022/03/09 06:34:03;;;;;;;;;;;3.50;42.50;;;;;;5092047;28;19973;-65
2022/03/09 06:36:30;;;;;;;;;;;3.50;42.90;;;;;;5091962;28;19963;-65
2022/03/09 06:38:56;;;;;;;;;;;3.50;42.40;;;;;;5092459;28;19977;-64
2022/03/09 06:41:24;;;;;;;;;;;3.50;58.10;;;;;;5092179;28;20360;-66
2022/03/09 06:43:50;;;;;;;;;;;3.50;43.90;;;;;;5092064;28;19978;-64
2022/03/09 06:46:17;;;;;;;;;;;3.60;59.20;;;;;;5092221;28;19969;-64
2022/03/09 06:48:43;;;;;;;;;;;3.60;43.90;;;;;;5092225;28;19920;-64
2022/03/09 06:51:10;;;;;;;;;;;3.60;44.50;;;;;;5091988;28;19920;-64
2022/03/09 06:53:37;;;;;;;;;;;3.60;45.10;;;;;;5092056;28;19924;-64
2022/03/09 06:56:03;;;;;;;;;;;3.70;44.80;;;;;;5092037;28;19975;-64
2022/03/09 06:58:31;;;;;;;;;;;3.80;45.70;;;;;;5092046;28;19920;-64
2022/03/09 07:00:58;;;;;;;;;;;3.80;46.60;;;;;;5092071;28;19920;-64
2022/03/09 07:03:24;;;;;;;;;;;3.90;47.00;;;;;;5091698;28;19924;-64
2022/03/09 07:05:52;;;;;;;;;;;4.00;48.40;;;;;;5091880;28;19930;-63
2022/03/09 07:08:19;;;;;;;;;;;4.10;65.40;;;;;;5091993;28;19920;-66
2022/03/09 07:10:46;;;;;;;;;;;4.20;50.20;;;;;;5081935;28;19981;-65
2022/03/09 07:13:13;;;;;;;;;;;4.30;51.10;;;;;;5091702;28;19955;-65
2022/03/09 07:15:40;;;;;;;;;;;4.40;51.00;;;;;;5091525;28;19926;-64
2022/03/09 07:18:07;;;;;;;;;;;4.40;51.00;;;;;;5091856;28;19924;-62
2022/03/09 07:20:33;;;;;;;;;;;4.60;51.80;;;;;;5091540;28;19924;-63
2022/03/09 07:23:00;;;;;;;;;;;4.70;53.10;;;;;;5091774;28;19920;-66
2022/03/09 07:25:27;;;;;;;;;;;4.70;54.10;;;;;;5082903;28;19920;-65
2022/03/09 07:27:53;;;;;;;;;;;4.80;54.90;;;;;;5091115;28;19920;-66
2022/03/09 07:30:20;;;;;;;;;;;4.90;56.30;;;;;;5091704;28;19920;-65
2022/03/09 07:32:48;;;;;;;;;;;5.00;56.20;;;;;;5091380;28;19945;-66
2022/03/09 07:35:14;;;;;;;;;;;5.10;56.30;;;;;;5091742;28;19924;-66
2022/03/09 07:37:41;;;;;;;;;;;5.20;58.80;;;;;;5091741;28;19920;-65
2022/03/09 07:40:08;;;;;;;;;;;5.30;59.90;;;;;;5090073;28;19982;-65
2022/03/09 07:42:34;;;;;;;;;;;5.40;60.40;;;;;;5090604;28;19941;-67
2022/03/09 07:45:01;;;;;;;;;;;5.50;62.50;;;;;;5075701;28;19920;-67
2022/03/09 07:47:28;;;;;;;;;;;5.50;61.20;;;;;;5071262;28;19977;-65
2022/03/09 07:49:55;;;;;;;;;;;5.60;61.70;;;;;;5071117;28;19921;-66
2022/03/09 07:52:22;;;;;;;;;;;5.80;64.00;;;;;;5071012;28;19928;-64
2022/03/09 07:54:48;;;;;;;;;;;5.90;65.10;;;;;;5071348;28;19920;-65
2022/03/09 07:57:15;;;;;;;;;;;6.00;66.80;;;;;;5070865;28;19965;-66
2022/03/09 07:59:42;;;;;;;;;;;6.20;67.70;;;;;;5071587;28;19924;-65
2022/03/09 08:02:08;;;;;;;;;;;6.30;69.60;;;;;;5070979;28;19925;-66
2022/03/09 08:04:35;;;;;;;;;;;6.40;71.20;;;;;;5071151;28;19920;-65
2022/03/09 08:07:03;;;;;;;;;;;6.50;71.50;;;;;;5070990;28;19921;-65
2022/03/09 08:09:30;;;;;;;;;;;6.60;71.90;;;;;;5071136;28;19924;-64
2022/03/09 08:11:56;;;;;;;;;;;6.70;74.00;;;;;;5071160;28;20366;-64
2022/03/09 08:14:23;;;;;;;;;;;6.90;74.90;;;;;;5070803;28;19928;-64
2022/03/09 08:16:50;;;;;;;;;;;7.00;76.30;;;;;;5070827;28;20399;-61
2022/03/09 08:19:16;;;;;;;;;;;7.10;79.00;;;;;;5070742;28;19925;-62
2022/03/09 08:21:43;;;;;;;;;;;7.20;78.40;;;;;;5070877;28;19977;-64
2022/03/09 08:24:11;;;;;;;;;;;7.40;80.10;;;;;;5074412;28;19974;-65
2022/03/09 08:26:38;;;;;;;;;;;7.50;80.10;;;;;;5073936;28;20378;-65
2022/03/09 08:29:05;;;;;;;;;;;7.60;82.00;;;;;;5074871;28;19966;-66
2022/03/09 08:31:31;;;;;;;;;;;7.60;79.70;;;;;;5073985;28;19974;-66
2022/03/09 08:33:58;;;;;;;;;;;7.70;84.10;;;;;;5074415;28;19920;-67
2022/03/09 08:36:25;;;;;;;;;;;7.80;86.20;;;;;;5074123;28;19924;-66
2022/03/09 08:38:51;;;;;;;;;;;7.80;81.80;;;;;;5074490;28;20459;-66
2022/03/09 08:41:20;;;;;;;;;;;7.90;83.00;;;;;;5074378;28;19920;-67
2022/03/09 08:43:47;;;;;;;;;;;8.00;84.70;;;;;;5074002;28;19947;-65
2022/03/09 08:46:13;;;;;;;;;;;8.00;85.80;;;;;;5073902;28;20428;-65
2022/03/09 08:48:40;;;;;;;;;;;8.10;84.30;;;;;;5073866;28;19921;-63
2022/03/09 08:51:07;;;;;;;;;;;8.20;86.90;;;;;;5074038;28;20367;-66
2022/03/09 08:53:34;;;;;;;;;;;8.20;85.70;;;;;;5074308;28;19920;-63
2022/03/09 08:56:01;;;;;;;;;;;8.40;88.60;;;;;;5073540;28;19920;-63
2022/03/09 08:58:28;;;;;;;;;;;8.50;89.10;;;;;;5074268;28;19951;-66
2022/03/09 09:00:55;;;;;;;;;;;8.60;89.90;;;;;;5073633;28;20287;-64
2022/03/09 09:03:21;;;;;;;;;;;8.60;89.20;;;;;;5073862;28;20451;-64
2022/03/09 09:05:48;;;;;;;;;;;8.60;88.00;;;;;;5073726;28;19966;-64
2022/03/09 09:08:14;;;;;;;;;;;8.70;90.30;;;;;;5073650;28;20345;-64
2022/03/09 09:10:41;;;;;;;;;;;8.80;90.00;;;;;;5073869;28;19920;-64
2022/03/09 09:13:08;;;;;;;;;;;8.90;92.00;;;;;;5073673;28;19924;-64
2022/03/09 09:15:35;;;;;;;;;;;8.90;90.50;;;;;;5073718;28;19928;-63
2022/03/09 09:18:03;;;;;;;;;;;9.00;90.30;;;;;;5074089;28;19943;-64
2022/03/09 09:20:30;;;;;;;;;;;9.00;90.90;;;;;;5074311;28;19982;-63
2022/03/09 09:22:56;;;;;;;;;;;9.10;91.20;;;;;;5073809;28;20448;-62
2022/03/09 09:25:24;;;;;;;;;;;9.10;90.20;;;;;;5073472;28;19920;-63
2022/03/09 09:27:50;;;;;;;;;;;9.10;90.30;;;;;;5073557;28;19932;-62
2022/03/09 09:30:17;;;;;;;;;;;9.10;91.10;;;;;;5073394;28;19978;-64
2022/03/09 09:32:45;;;;;;;;;;;9.10;86.80;;;;;;5074146;28;19974;-63
2022/03/09 09:35:12;;;;;;;;;;;9.20;87.00;;;;;;5072912;28;19920;-62
2022/03/09 09:37:39;;;;;;;;;;;9.20;87.30;;;;;;5073482;28;19924;-63
2022/03/09 09:40:07;;;;;;;;;;;9.40;90.60;;;;;;5073451;28;20531;-62
2022/03/09 09:42:34;;;;;;;;;;;9.60;90.50;;;;;;5073507;28;19924;-64
2022/03/09 09:45:01;;;;;;;;;;;9.80;92.40;;;;;;5073131;28;19920;-64
2022/03/09 09:47:28;;;;;;;;;;;10.00;93.10;;;;;;5072770;28;20374;-64
2022/03/09 09:49:56;;;;;;;;;;;10.00;92.50;;;;;;5073169;28;20390;-63
2022/03/09 09:52:25;;;;;;;;;;;10.20;93.60;;;;;;5073778;28;19920;-65
2022/03/09 09:54:53;;;;;;;;;;;10.10;92.10;;;;;;5073563;28;19920;-64
2022/03/09 09:57:20;;;;;;;;;;;10.10;91.80;;;;;;5072165;28;19920;-64
2022/03/09 09:59:46;;;;;;;;;;;10.10;93.70;;;;;;5072890;28;19950;-63
2022/03/09 10:02:13;;;;;;;;;;;10.30;93.60;;;;;;5073204;28;19920;-63
2022/03/09 10:04:40;;;;;;;;;;;10.20;92.90;;;;;;5072322;28;19920;-64
2022/03/09 10:07:08;;;;;;;;;;;10.30;92.40;;;;;;5081681;28;19924;-63
2022/03/09 10:09:35;;;;;;;;;;;10.40;93.00;;;;;;5092849;28;19924;-61
2022/03/09 10:12:04;;;;;;;;;;;10.30;93.30;;;;;;5092197;28;19920;-61
2022/03/09 10:14:42;;;;;;;;;;;10.40;93.50;;;;;;5092992;28;19920;-61
2022/03/09 10:17:09;;;;;;;;;;;10.50;95.00;;;;;;5091718;28;19946;-62
2022/03/09 10:19:36;;;;;;;;;;;10.60;99.90;;;;;;5092874;28;19965;-65
2022/03/09 10:22:24;;;;;;;;;;;10.60;94.60;;;;;;5092223;28;19973;-65
2022/03/09 10:24:51;;;;;;;;;;;10.60;93.80;;;;;;5092359;28;20374;-65
2022/03/09 10:27:32;;;;;;;;;;;10.70;94.90;;;;;;5092131;28;19924;-61
2022/03/09 10:29:59;;;;;;;;;;;10.80;95.30;;;;;;5092991;28;19920;-61
2022/03/09 10:32:41;;;;;;;;;;;10.70;94.50;;;;;;5092460;28;20347;-63
2022/03/09 10:35:08;;;;;;;;;;;10.80;94.70;;;;;;5091935;28;19927;-64
2022/03/09 10:37:39;;;;;;;;;;;10.90;95.20;;;;;;5092088;28;19920;-65
2022/03/09 10:40:09;;;;;;;;;;;11.00;95.50;;;;;;5092136;28;19981;-66
2022/03/09 10:42:36;;;;;;;;;;;11.00;99.90;;;;;;5092160;28;19920;-64
2022/03/09 10:45:04;;;;;;;;;;;11.10;96.50;;;;;;5092060;28;19920;-63
2022/03/09 10:47:31;;;;;;;;;;;11.20;97.30;;;;;;5091104;28;19989;-63
2022/03/09 10:50:08;;;;;;;;;;;11.30;97.70;;;;;;5092177;28;20001;-64
2022/03/09 10:52:46;;;;;;;;;;;11.30;97.10;;;;;;5091928;28;19924;-65
2022/03/09 10:55:29;;;;;;;;;;;11.40;97.60;;;;;;5092107;28;19973;-64
2022/03/09 10:58:09;;;;;;;;;;;11.40;96.90;;;;;;5091419;28;20382;-66
2022/03/09 11:00:37;;;;;;;;;;;11.50;97.30;;;;;;5092441;28;19920;-65
2022/03/09 11:03:07;;;;;;;;;;;11.50;97.40;;;;;;5091774;28;20378;-64
2022/03/09 11:05:34;;;;;;;;;;;11.70;97.20;;;;;;5092385;28;20431;-66
2022/03/09 11:08:03;;;;;;;;;;;11.80;99.00;;;;;;5092962;28;19943;-63
2022/03/09 11:10:30;;;;;;;;;;;11.70;97.70;;;;;;5092048;28;19949;-62
2022/03/09 11:12:56;;;;;;;;;;;11.50;96.80;;;;;;5092297;28;19924;-63
2022/03/09 11:15:24;;;;;;;;;;;11.70;97.50;;;;;;5091964;28;20354;-66
2022/03/09 11:17:51;;;;;;;;;;;11.80;97.70;;;;;;5092307;28;19924;-65
2022/03/09 11:20:19;;;;;;;;;;;11.70;97.00;;;;;;5092994;28;19973;-64
2022/03/09 11:22:45;;;;;;;;;;;11.70;96.50;;;;;;5093313;28;19920;-62
2022/03/09 11:25:14;;;;;;;;;;;11.70;95.90;;;;;;5092494;28;19973;-62
2022/03/09 11:27:45;;;;;;;;;;;11.80;96.80;;;;;;5091278;28;20369;-59
2022/03/09 11:30:21;;;;;;;;;;;11.90;96.70;;;;;;5092322;28;20344;-63
2022/03/09 11:32:49;;;;;;;;;;;12.00;97.20;;;;;;5091529;28;20389;-63
2022/03/09 11:35:34;;;;;;;;;;;12.10;97.10;;;;;;5091840;28;19920;-63
2022/03/09 11:38:01;;;;;;;;;;;12.10;97.60;;;;;;5091266;28;19920;-63
2022/03/09 11:40:30;;;;;;;;;;;11.90;95.80;;;;;;5091696;28;19927;-62
2022/03/09 11:43:17;;;;;;;;;;;11.90;96.70;;;;;;5091722;28;19924;-61
2022/03/09 11:45:50;;;;;;;;;;;11.80;95.60;;;;;;5090975;28;19989;-68
2022/03/09 11:48:17;;;;;;;;;;;11.90;97.00;;;;;;5092125;28;19924;-66
2022/03/09 11:51:12;;;;;;;;;;;12.00;98.10;;;;;;5091227;28;20337;-66
2022/03/09 11:53:43;;;;;;;;;;;12.20;99.90;;;;;;5052278;28;19923;-66
2022/03/09 11:56:25;;;;;;;;;;;12.40;99.00;;;;;;5090746;28;19920;-67
2022/03/09 11:59:07;;;;;;;;;;;12.60;99.90;;;;;;5094597;28;20407;-68
2022/03/09 12:01:54;;;;;;;;;;;12.60;99.90;;;;;;5095013;28;19965;-68
2022/03/09 12:04:39;;;;;;;;;;;12.40;98.00;;;;;;5095331;28;19965;-65
2022/03/09 12:07:06;;;;;;;;;;;12.50;98.00;;;;;;5094592;28;19920;-64
2022/03/09 12:09:57;;;;;;;;;;;12.20;95.70;;;;;;5095605;28;19919;-65
2022/03/09 12:12:25;;;;;;;;;;;12.30;95.00;;;;;;5079742;28;19959;-66
2022/03/09 12:15:01;;;;;;;;;;;12.40;95.70;;;;;;5094755;28;19920;-67
2022/03/09 12:17:28;;;;;;;;;;;12.60;97.80;;;;;;5087111;28;20358;-66
2022/03/09 12:20:15;;;;;;;;;;;12.50;95.90;;;;;;5094920;28;19920;-67
2022/03/09 12:23:03;;;;;;;;;;;12.60;97.60;;;;;;5095315;28;20023;-63
2022/03/09 12:25:36;;;;;;;;;;;12.60;96.70;;;;;;5094878;28;19924;-66
2022/03/09 12:28:18;;;;;;;;;;;12.80;98.70;;;;;;5095309;28;19926;-66
2022/03/09 12:30:47;;;;;;;;;;;13.10;99.90;;;;;;5083732;28;19925;-67
2022/03/09 12:33:21;;;;;;;;;;;13.30;99.90;;;;;;5074799;28;19920;-66
2022/03/09 12:35:48;;;;;;;;;;;13.30;99.90;;;;;;5074552;28;19920;-61
2022/03/09 12:38:14;;;;;;;;;;;13.40;99.70;;;;;;5074507;28;19974;-61
2022/03/09 12:40:41;;;;;;;;;;;13.10;97.80;;;;;;5074269;28;19920;-59
2022/03/09 12:43:07;;;;;;;;;;;12.90;94.30;;;;;;5074238;28;20366;-65
2022/03/09 12:45:49;;;;;;;;;;;12.90;95.20;;;;;;5074495;28;19965;-64
2022/03/09 12:48:18;;;;;;;;;;;13.00;95.90;;;;;;5074264;28;19966;-64
2022/03/09 12:50:45;;;;;;;;;;;13.10;95.20;;;;;;5073944;28;19974;-64
2022/03/09 12:53:12;;;;;;;;;;;13.00;94.70;;;;;;5074706;28;20394;-65
2022/03/09 12:55:39;;;;;;;;;;;13.00;94.50;;;;;;5074034;28;20104;-65
2022/03/09 12:58:06;;;;;;;;;;;13.00;94.60;;;;;;5074084;28;19927;-65
2022/03/09 13:00:35;;;;;;;;;;;13.00;94.50;;;;;;5073633;28;20016;-65
2022/03/09 13:03:02;;;;;;;;;;;13.10;94.80;;;;;;5074519;28;20333;-65
2022/03/09 13:05:30;;;;;;;;;;;13.10;92.80;;;;;;5075244;28;19920;-65
2022/03/09 13:07:58;;;;;;;;;;;13.10;93.90;;;;;;5074876;28;19920;-65
2022/03/09 13:10:25;;;;;;;;;;;13.00;92.50;;;;;;5074149;28;19927;-63
2022/03/09 13:12:52;;;;;;;;;;;13.10;92.90;;;;;;5074363;28;20293;-64
2022/03/09 13:15:19;;;;;;;;;;;13.00;92.80;;;;;;5077053;28;19920;-63
2022/03/09 13:17:46;;;;;;;;;;;13.10;92.20;;;;;;5076267;28;19974;-65
2022/03/09 13:20:13;;;;;;;;;;;13.20;93.40;;;;;;5073912;28;19927;-64
2022/03/09 13:22:45;;;;;;;;;;;13.40;94.90;;;;;;5073821;28;19928;-65
2022/03/09 13:25:12;;;;;;;;;;;13.60;95.90;;;;;;5074044;28;19921;-63
2022/03/09 13:27:38;;;;;;;;;;;13.40;94.10;;;;;;5073940;28;19974;-65
2022/03/09 13:30:11;;;;;;;;;;;13.50;95.00;;;;;;5073538;28;19932;-61
2022/03/09 13:32:38;;;;;;;;;;;13.60;95.70;;;;;;5074075;28;19973;-64
2022/03/09 13:35:05;;;;;;;;;;;13.50;93.20;;;;;;5074497;28;19989;-63
2022/03/09 13:37:32;;;;;;;;;;;13.50;92.70;;;;;;5073602;28;19921;-61
2022/03/09 13:40:02;;;;;;;;;;;13.40;92.30;;;;;;5073767;28;20275;-64
2022/03/09 13:42:34;;;;;;;;;;;13.50;94.00;;;;;;5072310;28;19921;-64
2022/03/09 13:45:02;;;;;;;;;;;13.70;94.30;;;;;;5073963;28;20413;-69
2022/03/09 13:47:28;;;;;;;;;;;13.80;94.40;;;;;;5073911;28;19920;-64
2022/03/09 13:49:55;;;;;;;;;;;13.90;95.80;;;;;;5074538;28;19973;-63
2022/03/09 13:52:25;;;;;;;;;;;13.90;96.30;;;;;;5073394;28;19924;-66
2022/03/09 13:54:52;;;;;;;;;;;13.70;92.40;;;;;;5072675;28;19920;-62
2022/03/09 13:57:31;;;;;;;;;;;13.30;91.40;;;;;;5073364;28;19974;-61
2022/03/09 13:59:57;;;;;;;;;;;13.30;91.40;;;;;;5072977;28;20398;-61
2022/03/09 14:02:24;;;;;;;;;;;13.30;91.30;;;;;;5073153;28;20371;-61
2022/03/09 14:04:51;;;;;;;;;;;13.30;90.90;;;;;;5072992;28;19927;-62
2022/03/09 14:07:18;;;;;;;;;;;13.20;88.50;;;;;;5072386;28;19920;-61
2022/03/09 14:10:00;;;;;;;;;;;13.40;91.00;;;;;;5072799;28;19920;-62
2022/03/09 14:12:26;;;;;;;;;;;13.50;91.00;;;;;;5063337;28;19920;-62
2022/03/09 14:14:54;;;;;;;;;;;13.60;92.10;;;;;;5073014;28;19974;-62
2022/03/09 14:17:21;;;;;;;;;;;13.70;91.70;;;;;;5072230;28;19928;-64
2022/03/09 14:19:47;;;;;;;;;;;13.80;90.90;;;;;;5072472;28;19927;-62
2022/03/09 14:22:14;;;;;;;;;;;13.60;89.00;;;;;;5072098;28;19924;-64
2022/03/09 14:24:40;;;;;;;;;;;13.50;88.00;;;;;;5072439;28;19977;-61
2022/03/09 14:27:09;;;;;;;;;;;13.40;87.30;;;;;;5072308;28;19920;-62
2022/03/09 14:29:35;;;;;;;;;;;13.30;84.40;;;;;;5072147;28;20340;-62
2022/03/09 14:32:03;;;;;;;;;;;13.20;83.30;;;;;;5072035;28;19920;-62
2022/03/09 14:34:30;;;;;;;;;;;13.10;81.80;;;;;;5071856;28;20477;-63